Time;durP1;ratioP1;P1;durP2;ratioP2;P2;SDS_P1;SDS_P2;PMS_P1;PMS_P2;Temp;Humidity;BMP_temperature;BMP_pressure;BME280_temperature;BME280_humidity;BME280_pressure;Samples;Min_cycle;Max_cycle;Signal;HPM_P1;HPM_P2
2021/10/28 00:13:09;;;;;;;10.03;8.03;;;12.00;99.90;;;;;;5027006;28;20429;-50
2021/10/28 00:15:37;;;;;;;8.70;7.30;;;12.00;99.90;;;;;;5028165;28;20444;-50
2021/10/28 00:18:08;;;;;;;10.53;7.93;;;12.10;99.90;;;;;;5028405;28;20904;-47
2021/10/28 00:20:35;;;;;;;10.53;7.60;;;12.00;99.90;;;;;;5015955;28;20440;-49
2021/10/28 00:23:06;;;;;;;11.83;8.33;;;12.00;99.90;;;;;;5027553;28;20456;-45
2021/10/28 00:25:33;;;;;;;9.87;6.60;;;12.20;99.90;;;;;;5028461;28;20435;-45
2021/10/28 00:27:59;;;;;;;11.00;7.27;;;11.90;99.90;;;;;;5028472;28;20551;-45
2021/10/28 00:30:25;;;;;;;10.17;7.20;;;11.90;99.90;;;;;;5027637;28;20563;-45
2021/10/28 00:32:51;;;;;;;8.83;6.90;;;11.90;99.90;;;;;;5027605;28;20467;-45
2021/10/28 00:35:17;;;;;;;10.70;7.57;;;11.90;99.90;;;;;;5017084;28;20522;-48
2021/10/28 00:37:42;;;;;;;9.77;7.40;;;11.90;99.90;;;;;;5026639;28;20281;-45
2021/10/28 00:40:09;;;;;;;10.57;6.83;;;12.00;99.90;;;;;;5027822;28;20863;-47
2021/10/28 00:42:36;;;;;;;10.77;7.80;;;12.00;99.90;;;;;;5027873;28;20711;-46
2021/10/28 00:45:05;;;;;;;8.20;6.20;;;11.90;99.90;;;;;;5027105;28;20429;-48
2021/10/28 00:47:33;;;;;;;10.10;8.10;;;11.90;99.90;;;;;;5027604;28;20433;-45
2021/10/28 00:50:00;;;;;;;9.60;7.83;;;11.90;99.90;;;;;;5020344;28;20445;-47
2021/10/28 00:52:26;;;;;;;9.93;7.50;;;11.90;99.90;;;;;;5025806;28;20835;-45
2021/10/28 00:54:52;;;;;;;9.27;7.07;;;11.90;99.90;;;;;;5026813;28;20459;-46
2021/10/28 00:57:18;;;;;;;9.80;7.90;;;11.90;99.90;;;;;;5027377;28;20775;-45
2021/10/28 00:59:45;;;;;;;12.70;8.70;;;11.80;99.90;;;;;;5027981;28;20447;-52
2021/10/28 01:02:11;;;;;;;11.17;9.03;;;11.90;99.90;;;;;;5027449;28;20245;-45
2021/10/28 01:04:38;;;;;;;12.90;7.70;;;11.90;99.90;;;;;;5019746;28;20853;-45
2021/10/28 01:07:05;;;;;;;11.57;8.40;;;11.90;99.90;;;;;;5022738;28;20548;-45
2021/10/28 01:09:31;;;;;;;9.73;7.83;;;11.80;99.90;;;;;;5027061;28;20435;-45
2021/10/28 01:11:57;;;;;;;10.10;7.07;;;11.90;99.90;;;;;;5026133;28;20436;-46
2021/10/28 01:14:23;;;;;;;10.63;8.40;;;11.90;99.90;;;;;;5026754;28;20421;-47
2021/10/28 01:16:54;;;;;;;9.00;7.33;;;11.90;99.90;;;;;;5027147;28;20452;-45
2021/10/28 01:19:22;;;;;;;10.53;7.70;;;11.80;99.90;;;;;;5023054;28;20464;-45
2021/10/28 01:21:48;;;;;;;11.97;8.83;;;11.80;99.90;;;;;;5022396;28;20461;-44
2021/10/28 01:24:14;;;;;;;10.80;8.20;;;11.90;99.90;;;;;;5026408;28;20429;-44
2021/10/28 01:26:39;;;;;;;9.53;7.67;;;11.60;99.90;;;;;;5027318;28;20588;-46
2021/10/28 01:29:05;;;;;;;10.23;7.43;;;11.90;99.90;;;;;;5026978;28;20862;-44
2021/10/28 01:31:34;;;;;;;11.80;8.07;;;11.60;99.90;;;;;;5027299;28;20263;-45
2021/10/28 01:34:02;;;;;;;9.30;7.90;;;11.80;99.90;;;;;;5025849;28;20589;-47
2021/10/28 01:36:28;;;;;;;10.90;8.33;;;11.60;99.90;;;;;;5021495;28;20428;-44
2021/10/28 01:38:55;;;;;;;10.43;7.80;;;11.70;99.90;;;;;;5026598;28;20421;-48
2021/10/28 01:41:22;;;;;;;11.20;7.60;;;11.80;99.90;;;;;;5026759;28;20821;-44
2021/10/28 01:43:47;;;;;;;10.27;8.07;;;11.70;99.90;;;;;;5026167;28;20421;-47
2021/10/28 01:46:13;;;;;;;9.97;8.70;;;11.60;99.90;;;;;;5026604;28;20470;-46
2021/10/28 01:48:40;;;;;;;13.23;8.60;;;11.60;99.90;;;;;;5026594;28;20186;-47
2021/10/28 01:51:10;;;;;;;10.73;7.93;;;11.60;99.90;;;;;;5017308;28;20445;-45
2021/10/28 01:53:40;;;;;;;11.23;8.07;;;11.50;99.90;;;;;;5025716;28;21017;-46
2021/10/28 01:56:08;;;;;;;12.70;8.53;;;11.60;99.90;;;;;;5025907;28;20919;-46
2021/10/28 01:58:34;;;;;;;15.47;9.40;;;11.50;99.90;;;;;;5026681;28;20413;-47
2021/10/28 02:01:01;;;;;;;10.07;8.13;;;11.50;99.90;;;;;;5026133;28;20503;-45
2021/10/28 02:03:26;;;;;;;11.93;9.60;;;11.50;99.90;;;;;;5026178;28;20424;-47
2021/10/28 02:05:53;;;;;;;10.10;8.97;;;11.60;99.90;;;;;;5017315;28;20437;-45
2021/10/28 02:08:19;;;;;;;10.50;8.30;;;11.80;99.90;;;;;;5026005;28;20641;-44
2021/10/28 02:10:46;;;;;;;13.00;9.30;;;11.50;99.90;;;;;;5026030;28;20911;-46
2021/10/28 02:13:13;;;;;;;10.40;8.60;;;11.40;99.90;;;;;;5024342;28;20417;-46
2021/10/28 02:15:40;;;;;;;11.23;8.20;;;11.40;99.90;;;;;;5026141;28;20502;-45
2021/10/28 02:18:06;;;;;;;10.83;8.57;;;11.30;99.90;;;;;;5026274;28;20467;-46
2021/10/28 02:20:32;;;;;;;9.57;8.50;;;11.30;99.90;;;;;;5017322;28;20528;-45
2021/10/28 02:22:58;;;;;;;10.83;8.20;;;11.30;99.90;;;;;;5019582;28;20679;-44
2021/10/28 02:25:24;;;;;;;12.87;8.67;;;11.30;99.90;;;;;;5025966;28;20182;-44
2021/10/28 02:27:50;;;;;;;13.10;8.80;;;11.30;99.90;;;;;;5025784;28;20471;-45
2021/10/28 02:30:16;;;;;;;13.87;9.73;;;11.30;99.90;;;;;;5025888;28;20658;-44
2021/10/28 02:32:43;;;;;;;13.47;9.20;;;11.30;99.90;;;;;;5025796;28;20816;-45
2021/10/28 02:35:09;;;;;;;10.00;8.20;;;11.40;99.90;;;;;;5019699;28;20469;-47
2021/10/28 02:37:35;;;;;;;11.63;8.40;;;11.30;99.90;;;;;;5018978;28;20864;-48
2021/10/28 02:40:00;;;;;;;13.97;9.70;;;11.20;99.90;;;;;;5026354;28;20765;-46
2021/10/28 02:42:26;;;;;;;12.20;8.77;;;11.10;99.90;;;;;;5025602;28;20464;-45
2021/10/28 02:44:52;;;;;;;10.57;8.80;;;11.10;99.90;;;;;;5025367;28;20202;-45
2021/10/28 02:47:18;;;;;;;14.23;9.40;;;11.20;99.90;;;;;;5025998;28;20187;-45
2021/10/28 02:49:44;;;;;;;10.53;8.13;;;11.10;99.90;;;;;;5023157;28;20244;-49
2021/10/28 02:52:10;;;;;;;13.07;9.40;;;11.10;99.90;;;;;;5020812;28;20429;-46
2021/10/28 02:54:38;;;;;;;13.27;9.47;;;11.20;99.90;;;;;;5024828;28;20517;-45
2021/10/28 02:57:05;;;;;;;12.20;9.77;;;11.00;99.90;;;;;;5025613;28;20510;-45
2021/10/28 02:59:30;;;;;;;11.33;9.27;;;11.10;99.90;;;;;;5025821;28;20417;-44
2021/10/28 03:01:56;;;;;;;13.17;9.20;;;11.20;99.90;;;;;;5028244;28;20518;-47
2021/10/28 03:04:24;;;;;;;12.67;9.73;;;11.20;99.90;;;;;;5029004;28;20201;-45
2021/10/28 03:06:50;;;;;;;12.07;9.07;;;11.00;99.90;;;;;;5022695;28;20175;-46
2021/10/28 03:09:22;;;;;;;11.53;9.03;;;11.10;99.90;;;;;;5029444;28;20436;-47
2021/10/28 03:11:50;;;;;;;14.70;10.20;;;11.00;99.90;;;;;;5028116;28;20447;-46
2021/10/28 03:14:20;;;;;;;10.17;9.00;;;11.00;99.90;;;;;;5028560;28;20428;-46
2021/10/28 03:16:54;;;;;;;12.23;9.00;;;10.90;99.90;;;;;;5029411;28;20425;-45
2021/10/28 03:19:36;;;;;;;9.43;8.17;;;10.90;99.90;;;;;;5029036;28;20425;-45
2021/10/28 03:27:31;;;;;;;11.20;8.13;;;10.40;99.90;;;;;;5017393;28;20425;-45
2021/10/28 03:29:58;;;;;;;8.53;7.50;;;10.40;99.90;;;;;;5028925;28;20429;-47
2021/10/28 03:32:28;;;;;;;11.23;8.27;;;10.30;99.90;;;;;;5029329;28;20433;-44
2021/10/28 03:34:54;;;;;;;9.83;8.00;;;10.20;99.90;;;;;;5027259;28;20460;-45
2021/10/28 03:37:28;;;;;;;12.83;9.20;;;10.20;99.90;;;;;;5020405;28;20429;-45
2021/10/28 04:30:55;;;;;;;15.50;11.67;;;11.00;99.90;;;;;;5004365;28;20434;-44
2021/10/28 04:33:21;;;;;;;14.20;11.43;;;11.10;99.90;;;;;;5004677;28;20488;-47
2021/10/28 04:35:47;;;;;;;15.10;11.83;;;10.90;99.90;;;;;;5027151;28;20440;-45
2021/10/28 04:38:13;;;;;;;17.30;13.23;;;11.00;99.90;;;;;;5025870;28;20198;-45
2021/10/28 04:40:39;;;;;;;16.80;12.80;;;11.00;99.90;;;;;;5027850;28;20198;-44
2021/10/28 04:43:05;;;;;;;18.63;13.47;;;11.10;99.90;;;;;;5027095;28;20321;-50
2021/10/28 04:45:30;;;;;;;16.97;13.87;;;11.20;99.90;;;;;;5027892;28;20512;-44
2021/10/28 04:47:56;;;;;;;19.20;13.90;;;11.10;99.90;;;;;;5027520;28;20581;-48
2021/10/28 04:50:22;;;;;;;17.37;13.43;;;11.30;99.90;;;;;;5026650;28;20186;-45
2021/10/28 04:52:47;;;;;;;15.63;12.60;;;11.20;99.90;;;;;;5014338;28;20206;-45
2021/10/28 04:55:13;;;;;;;20.33;14.53;;;11.20;99.90;;;;;;5026529;28;20210;-45
2021/10/28 04:57:39;;;;;;;18.83;13.70;;;11.20;99.90;;;;;;5030184;28;20206;-47
2021/10/28 05:00:05;;;;;;;17.40;13.77;;;11.30;99.90;;;;;;5026712;28;20229;-45
2021/10/28 05:02:32;;;;;;;19.17;13.60;;;11.10;99.90;;;;;;5026043;28;20257;-45
2021/10/28 05:04:58;;;;;;;15.60;12.13;;;11.10;99.90;;;;;;5027105;28;20437;-47
2021/10/28 05:07:24;;;;;;;20.87;14.23;;;11.10;99.90;;;;;;5017223;28;20508;-46
2021/10/28 05:09:49;;;;;;;17.27;13.33;;;11.10;99.90;;;;;;5027208;28;20519;-46
2021/10/28 05:12:15;;;;;;;18.97;13.10;;;11.20;99.90;;;;;;5037961;28;20582;-50
2021/10/28 05:14:41;;;;;;;18.63;13.00;;;11.10;99.90;;;;;;5041510;28;20252;-45
2021/10/28 05:17:07;;;;;;;16.40;12.70;;;11.00;99.90;;;;;;5040865;28;20471;-46
2021/10/28 05:19:37;;;;;;;17.73;12.27;;;11.00;99.90;;;;;;5046159;28;20299;-45
2021/10/28 05:22:07;;;;;;;15.83;12.97;;;11.00;99.90;;;;;;5026505;28;20472;-48
2021/10/28 05:24:33;;;;;;;17.47;13.77;;;11.00;99.90;;;;;;5024203;28;20433;-45
2021/10/28 05:26:59;;;;;;;16.17;12.27;;;11.00;99.90;;;;;;5021729;28;20575;-47
2021/10/28 05:29:25;;;;;;;17.97;13.13;;;10.90;99.90;;;;;;5024224;28;20429;-47
2021/10/28 05:31:51;;;;;;;18.73;12.90;;;11.10;99.90;;;;;;5025218;28;20433;-45
2021/10/28 05:34:16;;;;;;;15.97;11.77;;;11.20;99.90;;;;;;5025718;28;20194;-45
2021/10/28 05:36:42;;;;;;;18.07;12.07;;;11.30;99.90;;;;;;5018739;28;20195;-45
2021/10/28 05:39:08;;;;;;;18.97;13.10;;;11.20;99.90;;;;;;5022624;28;20202;-45
2021/10/28 05:41:33;;;;;;;17.87;12.77;;;11.20;99.90;;;;;;5026506;28;20211;-45
2021/10/28 05:43:59;;;;;;;16.13;12.33;;;11.30;99.90;;;;;;5026425;28;20658;-46
2021/10/28 05:46:25;;;;;;;13.50;10.97;;;11.30;99.90;;;;;;5026234;28;20573;-52
2021/10/28 05:48:50;;;;;;;15.20;12.00;;;11.30;99.90;;;;;;5025998;28;20425;-47
2021/10/28 05:51:17;;;;;;;17.77;11.93;;;11.30;99.90;;;;;;5021904;28;20660;-49
2021/10/28 05:53:43;;;;;;;17.00;12.90;;;11.30;99.90;;;;;;5018283;28;20282;-45
2021/10/28 05:56:09;;;;;;;15.67;12.50;;;11.40;99.90;;;;;;5026158;28;20510;-48
2021/10/28 05:58:35;;;;;;;18.00;12.90;;;11.40;99.90;;;;;;5026523;28;20975;-45
2021/10/28 06:01:01;;;;;;;16.90;11.87;;;11.40;99.90;;;;;;5026335;28;20201;-46
2021/10/28 06:03:28;;;;;;;18.20;12.50;;;11.40;99.90;;;;;;5024430;28;20539;-45
2021/10/28 06:05:54;;;;;;;18.60;13.57;;;11.40;99.90;;;;;;5029109;28;20433;-45
2021/10/28 06:08:20;;;;;;;19.10;12.47;;;11.40;99.90;;;;;;5018160;28;20583;-47
2021/10/28 06:10:45;;;;;;;15.97;12.07;;;11.40;99.90;;;;;;5025662;28;20551;-44
2021/10/28 06:13:11;;;;;;;18.10;12.77;;;11.40;99.90;;;;;;5024125;28;20186;-45
2021/10/28 06:15:37;;;;;;;18.63;13.40;;;11.40;99.90;;;;;;5026283;28;20353;-45
2021/10/28 06:20:48;;;;;;;17.67;12.17;;;11.40;99.90;;;;;;5026217;28;20540;-46
2021/10/28 06:23:14;;;;;;;14.70;11.60;;;11.50;99.90;;;;;;5008164;28;20454;-45
2021/10/28 06:25:40;;;;;;;18.70;12.13;;;11.60;99.90;;;;;;5020219;28;20443;-45
2021/10/28 06:28:06;;;;;;;17.80;13.00;;;11.70;99.90;;;;;;5027695;28;20413;-48
2021/10/28 06:30:33;;;;;;;17.23;12.37;;;11.60;99.90;;;;;;5026679;28;20425;-45
2021/10/28 06:33:02;;;;;;;16.97;12.50;;;11.50;99.90;;;;;;5024983;28;20457;-46
2021/10/28 06:35:28;;;;;;;19.20;13.17;;;11.60;99.90;;;;;;5026116;28;20429;-44
2021/10/28 06:37:55;;;;;;;15.60;12.43;;;11.60;99.90;;;;;;5014370;28;20473;-47
2021/10/28 06:40:24;;;;;;;17.50;12.70;;;11.50;99.90;;;;;;5025864;28;20421;-44
2021/10/28 06:42:50;;;;;;;15.70;12.30;;;11.60;99.90;;;;;;5025085;28;20552;-45
2021/10/28 06:45:17;;;;;;;15.77;12.93;;;11.60;99.90;;;;;;5026483;28;21003;-45
2021/10/28 06:47:43;;;;;;;16.23;12.03;;;11.70;99.90;;;;;;5025611;28;20458;-46
2021/10/28 06:50:12;;;;;;;16.83;13.37;;;11.60;99.90;;;;;;5025894;28;20425;-47
2021/10/28 06:52:54;;;;;;;20.07;13.47;;;11.60;99.90;;;;;;5017594;28;20449;-46
2021/10/28 06:55:32;;;;;;;18.07;13.43;;;11.60;99.90;;;;;;5021953;28;20448;-47
2021/10/28 07:02:15;;;;;;;20.97;13.60;;;11.70;99.90;;;;;;5026249;28;20799;-45
2021/10/28 07:03:31;;;;;;;17.47;12.17;;;11.70;99.90;;;;;;5027376;28;20958;-45
2021/10/28 07:06:02;;;;;;;15.30;12.97;;;11.80;99.90;;;;;;5027310;28;20428;-46
2021/10/28 07:08:28;;;;;;;15.50;11.80;;;11.90;99.90;;;;;;5019424;28;20800;-44
2021/10/28 07:10:56;;;;;;;19.53;13.63;;;11.80;99.90;;;;;;5025627;28;20452;-45
2021/10/28 07:13:26;;;;;;;18.77;13.13;;;11.90;99.90;;;;;;5024075;28;20191;-46
2021/10/28 07:15:55;;;;;;;20.00;13.70;;;12.00;99.90;;;;;;5038923;28;20916;-45
2021/10/28 07:21:36;;;;;;;15.90;11.03;;;12.20;99.90;;;;;;5042645;28;20459;-45
2021/10/28 07:31:43;;;;;;;12.60;9.90;;;12.60;99.90;;;;;;5025254;28;20444;-48
2021/10/28 07:55:57;;;;;;;10.80;9.27;;;14.10;99.90;;;;;;5026398;28;20944;-46
2021/10/28 08:22:19;;;;;;;9.27;8.00;;;15.50;99.90;;;;;;5027602;28;20505;-46
2021/10/28 08:30:18;;;;;;;9.33;7.00;;;15.90;99.90;;;;;;5027987;28;20531;-45
2021/10/28 08:32:44;;;;;;;9.00;6.93;;;16.00;99.90;;;;;;5027809;28;20471;-46
2021/10/28 08:35:10;;;;;;;8.83;7.10;;;16.10;99.90;;;;;;5027527;28;20428;-47
2021/10/28 08:37:50;;;;;;;10.20;7.97;;;16.20;99.90;;;;;;5032755;28;20198;-46
2021/10/28 08:40:16;;;;;;;10.40;8.63;;;16.30;99.90;;;;;;5016061;28;20452;-46
2021/10/28 08:42:43;;;;;;;9.73;8.23;;;16.10;99.90;;;;;;5028618;28;20500;-50
2021/10/28 08:45:15;;;;;;;10.60;8.60;;;16.10;99.90;;;;;;5027983;28;20178;-46
2021/10/28 08:48:04;;;;;;;11.07;8.03;;;16.00;99.90;;;;;;5027741;28;20953;-45
2021/10/28 08:50:36;;;;;;;9.50;8.30;;;16.00;99.90;;;;;;5027343;28;20447;-47
2021/10/28 08:53:16;;;;;;;10.77;9.60;;;16.20;99.90;;;;;;5021307;28;20952;-46
2021/10/28 08:55:50;;;;;;;11.67;8.57;;;16.40;99.90;;;;;;5023070;28;20437;-49
2021/10/28 08:58:34;;;;;;;10.20;7.90;;;16.50;99.90;;;;;;5027396;28;20872;-46
2021/10/28 09:29:12;;;;;;;8.67;7.77;;;17.80;99.90;;;;;;5025853;28;20508;-46
2021/10/28 09:45:32;;;;;;;7.60;5.87;;;18.30;99.90;;;;;;5015462;28;20769;-49
2021/10/28 09:50:35;;;;;;;6.57;5.80;;;18.40;99.90;;;;;;5026578;28;20500;-46
2021/10/28 09:58:25;;;;;;;7.03;5.10;;;18.40;99.90;;;;;;5026264;28;20923;-48
2021/10/28 10:00:51;;;;;;;6.30;5.07;;;18.50;99.90;;;;;;5026666;28;20428;-46
2021/10/28 10:03:29;;;;;;;5.93;4.67;;;18.50;99.90;;;;;;5025201;28;20469;-46
2021/10/28 10:06:00;;;;;;;9.73;5.30;;;18.50;99.90;;;;;;5016387;28;20955;-48
2021/10/28 10:08:28;;;;;;;5.87;5.27;;;18.50;99.90;;;;;;5026235;28;20436;-48
2021/10/28 10:10:53;;;;;;;5.40;4.90;;;18.50;99.90;;;;;;5020028;28;21047;-46
2021/10/28 10:13:26;;;;;;;8.63;5.40;;;18.40;99.90;;;;;;5023975;28;20458;-45
2021/10/28 10:15:57;;;;;;;6.10;4.60;;;18.10;99.90;;;;;;5028726;28;21387;-47
2021/10/28 10:18:35;;;;;;;7.30;5.30;;;18.10;99.90;;;;;;5027385;28;20972;-47
2021/10/28 11:27:10;;;;;;;5.07;4.13;;;17.40;99.90;;;;;;5023809;28;20433;-46
2021/10/28 12:45:22;;;;;;;4.80;4.20;;;18.70;98.80;;;;;;5026122;28;20421;-44
2021/10/28 12:50:47;;;;;;;6.53;4.80;;;18.90;98.40;;;;;;5027941;28;20468;-45
2021/10/28 13:35:22;;;;;;;4.93;4.10;;;19.10;95.90;;;;;;5026264;28;20481;-48
2021/10/28 13:38:05;;;;;;;5.03;4.53;;;19.00;96.00;;;;;;5026490;28;20436;-47
2021/10/28 13:51:25;;;;;;;5.50;4.17;;;18.40;97.50;;;;;;5026792;28;20449;-45
2021/10/28 13:54:22;;;;;;;4.83;4.30;;;18.30;97.70;;;;;;5026128;28;20653;-45
2021/10/28 14:32:00;;;;;;;4.70;3.80;;;17.70;99.20;;;;;;5019965;28;20428;-45
2021/10/28 15:28:57;;;;;;;7.73;5.80;;;16.50;99.90;;;;;;5029194;28;20904;-46
2021/10/28 15:34:29;;;;;;;8.03;6.90;;;16.50;99.90;;;;;;5027179;28;20803;-45
2021/10/28 15:37:17;;;;;;;9.97;7.37;;;16.40;99.90;;;;;;5028947;28;20553;-47
2021/10/28 16:22:45;;;;;;;13.73;10.90;;;15.30;99.90;;;;;;5019012;28;20473;-44
2021/10/28 16:25:11;;;;;;;13.27;11.37;;;15.10;99.90;;;;;;5027742;28;20428;-46
2021/10/28 16:27:37;;;;;;;11.00;9.80;;;15.10;99.90;;;;;;5020494;28;20183;-44
2021/10/28 16:30:04;;;;;;;13.80;9.83;;;15.00;99.90;;;;;;5027203;28;21033;-43
2021/10/28 16:32:31;;;;;;;12.60;11.20;;;15.00;99.90;;;;;;5036362;28;20186;-43
2021/10/28 16:34:57;;;;;;;15.37;11.87;;;14.90;99.90;;;;;;5022193;28;20958;-45
2021/10/28 16:37:25;;;;;;;13.37;11.97;;;14.80;99.90;;;;;;5025572;28;20425;-48
2021/10/28 16:39:52;;;;;;;13.57;11.50;;;14.70;99.90;;;;;;5026569;28;21084;-43
2021/10/28 16:42:18;;;;;;;12.27;10.97;;;14.70;99.90;;;;;;5019294;28;20900;-46
2021/10/28 16:44:45;;;;;;;16.80;12.47;;;14.60;99.90;;;;;;5026121;28;20812;-46
2021/10/28 16:47:12;;;;;;;15.60;12.70;;;14.60;99.90;;;;;;5027171;28;20472;-45
2021/10/28 16:49:38;;;;;;;14.60;11.53;;;14.50;99.90;;;;;;5026861;28;20880;-46
2021/10/28 16:52:04;;;;;;;13.37;11.70;;;14.50;99.90;;;;;;5026854;28;20428;-44
2021/10/28 16:54:32;;;;;;;18.23;13.43;;;14.50;99.90;;;;;;5026411;28;20928;-44
2021/10/28 16:56:59;;;;;;;15.80;12.47;;;14.40;99.90;;;;;;5014892;28;20282;-44
2021/10/28 16:59:25;;;;;;;12.10;10.80;;;14.40;99.90;;;;;;5025104;28;20487;-44
2021/10/28 17:01:52;;;;;;;15.63;12.70;;;14.30;99.90;;;;;;5025401;28;20563;-44
2021/10/28 17:04:19;;;;;;;15.97;11.87;;;14.20;99.90;;;;;;5028321;28;20511;-47
2021/10/28 17:06:44;;;;;;;22.27;12.50;;;14.10;99.90;;;;;;5026361;28;20425;-44
2021/10/28 17:09:10;;;;;;;14.60;11.80;;;14.10;99.90;;;;;;5044379;28;20436;-47
2021/10/28 17:11:38;;;;;;;16.07;13.60;;;14.10;99.90;;;;;;5033848;28;20182;-48
2021/10/28 17:14:05;;;;;;;16.70;12.17;;;14.00;99.90;;;;;;5020650;28;20199;-45
2021/10/28 17:16:32;;;;;;;16.30;12.90;;;13.90;99.90;;;;;;5026661;28;20433;-46
2021/10/28 17:18:58;;;;;;;15.77;13.60;;;13.90;99.90;;;;;;5028276;28;20948;-47
2021/10/28 17:21:24;;;;;;;17.93;13.23;;;13.80;99.90;;;;;;5027140;28;20508;-48
2021/10/28 17:23:59;;;;;;;15.50;13.10;;;13.70;99.90;;;;;;5028839;28;20785;-45
2021/10/28 17:26:25;;;;;;;18.37;12.53;;;13.70;99.90;;;;;;5025449;28;20437;-49
2021/10/28 17:28:51;;;;;;;18.47;14.40;;;13.60;99.90;;;;;;5024504;28;20532;-46
2021/10/28 17:31:17;;;;;;;16.83;14.00;;;13.70;99.90;;;;;;5025587;28;20541;-44
2021/10/28 17:33:42;;;;;;;17.30;13.30;;;13.60;99.90;;;;;;5027375;28;20607;-46
2021/10/28 17:36:08;;;;;;;16.03;13.77;;;13.50;99.90;;;;;;5023374;28;20218;-47
2021/10/28 17:38:34;;;;;;;21.40;14.60;;;13.50;99.90;;;;;;5026413;28;20313;-47
2021/10/28 17:41:04;;;;;;;19.60;16.17;;;13.50;99.90;;;;;;5024965;28;20183;-46
2021/10/28 17:43:32;;;;;;;18.63;14.80;;;13.50;99.90;;;;;;5017540;28;20649;-45
2021/10/28 17:45:58;;;;;;;18.17;14.57;;;13.40;99.90;;;;;;5025739;28;20440;-43
2021/10/28 17:48:26;;;;;;;20.73;15.37;;;13.40;99.90;;;;;;5026106;28;20436;-44
2021/10/28 17:50:52;;;;;;;18.83;15.70;;;13.30;99.90;;;;;;5025817;28;20601;-44
2021/10/28 17:53:18;;;;;;;19.87;15.93;;;13.30;99.90;;;;;;5023724;28;20425;-46
2021/10/28 17:55:44;;;;;;;19.57;15.53;;;13.30;99.90;;;;;;5019948;28;20529;-48
2021/10/28 17:58:09;;;;;;;19.23;15.27;;;13.20;99.90;;;;;;5015869;28;20268;-44
2021/10/28 18:00:36;;;;;;;18.90;15.03;;;13.10;99.90;;;;;;5025517;28;20477;-45
2021/10/28 18:03:03;;;;;;;21.57;16.53;;;13.10;99.90;;;;;;5024694;28;20503;-44
2021/10/28 18:05:29;;;;;;;18.37;15.53;;;13.00;99.90;;;;;;5019289;28;20265;-44
2021/10/28 18:07:54;;;;;;;20.77;16.47;;;12.90;99.90;;;;;;5022768;28;21110;-44
2021/10/28 18:10:20;;;;;;;22.07;15.67;;;13.00;99.90;;;;;;5025181;28;20205;-48
2021/10/28 18:12:46;;;;;;;22.23;16.33;;;12.90;99.90;;;;;;5013608;28;20239;-46
2021/10/28 18:15:12;;;;;;;18.60;15.40;;;12.80;99.90;;;;;;5019383;28;20198;-48
2021/10/28 18:17:38;;;;;;;21.73;16.40;;;12.80;99.90;;;;;;5025402;28;20483;-46
2021/10/28 18:20:05;;;;;;;22.80;17.00;;;12.80;99.90;;;;;;5025263;28;20237;-44
2021/10/28 18:22:36;;;;;;;24.33;16.70;;;12.70;99.90;;;;;;5025752;28;20777;-44
2021/10/28 18:25:03;;;;;;;20.20;16.10;;;12.70;99.90;;;;;;5024989;28;20793;-45
2021/10/28 18:27:29;;;;;;;21.37;16.63;;;12.70;99.90;;;;;;5016990;28;20728;-49
2021/10/28 18:29:54;;;;;;;22.33;16.90;;;12.60;99.90;;;;;;5020126;28;20716;-44
2021/10/28 18:32:20;;;;;;;23.07;17.83;;;12.60;99.90;;;;;;5015462;28;20199;-44
2021/10/28 18:34:46;;;;;;;22.17;16.33;;;12.50;99.90;;;;;;5016916;28;20195;-44
2021/10/28 18:37:12;;;;;;;22.20;16.53;;;12.50;99.90;;;;;;5033191;28;20574;-47
2021/10/28 18:39:40;;;;;;;24.70;17.67;;;12.40;99.90;;;;;;5045199;28;20623;-43
2021/10/28 18:42:06;;;;;;;23.73;17.63;;;12.40;99.90;;;;;;5033083;28;20607;-44
2021/10/28 18:44:32;;;;;;;20.00;15.93;;;12.30;99.90;;;;;;5020738;28;20516;-44
2021/10/28 18:46:58;;;;;;;20.23;16.73;;;12.30;99.90;;;;;;5023608;28;21015;-46
2021/10/28 18:49:24;;;;;;;25.90;18.10;;;12.30;99.90;;;;;;5025253;28;20186;-44
2021/10/28 18:51:50;;;;;;;28.33;17.20;;;12.20;99.90;;;;;;5024812;28;20190;-45
2021/10/28 18:54:17;;;;;;;25.33;16.70;;;12.20;99.90;;;;;;5020381;28;20262;-43
2021/10/28 18:56:46;;;;;;;23.27;17.10;;;12.10;99.90;;;;;;5020974;28;20456;-48
2021/10/28 18:59:17;;;;;;;26.10;17.77;;;12.10;99.90;;;;;;5015874;28;20425;-48
2021/10/28 19:01:47;;;;;;;22.27;16.67;;;12.10;99.90;;;;;;5016937;28;21133;-44
2021/10/28 19:04:12;;;;;;;23.07;17.03;;;12.20;99.90;;;;;;5024257;28;20491;-45
2021/10/28 19:06:39;;;;;;;23.47;16.43;;;12.10;99.90;;;;;;5024670;28;20429;-45
2021/10/28 19:09:05;;;;;;;23.07;16.67;;;12.10;99.90;;;;;;5024664;28;20198;-44
2021/10/28 19:11:30;;;;;;;22.27;15.70;;;12.00;99.90;;;;;;5024812;28;20483;-48
2021/10/28 19:13:56;;;;;;;22.57;17.80;;;12.00;99.90;;;;;;5014300;28;20433;-44
2021/10/28 19:16:22;;;;;;;22.17;16.20;;;12.00;99.90;;;;;;5024818;28;20192;-45
2021/10/28 19:18:48;;;;;;;23.03;17.03;;;12.00;99.90;;;;;;5024930;28;20273;-47
2021/10/28 19:21:14;;;;;;;21.17;17.30;;;12.00;99.90;;;;;;5024723;28;21127;-45
2021/10/28 19:23:40;;;;;;;23.10;17.10;;;11.90;99.90;;;;;;5023815;28;20682;-46
2021/10/28 19:26:08;;;;;;;22.23;16.33;;;12.00;99.90;;;;;;5023596;28;20475;-45
2021/10/28 19:28:34;;;;;;;23.73;17.27;;;11.80;99.90;;;;;;5012938;28;20450;-43
2021/10/28 19:31:03;;;;;;;23.17;17.20;;;11.80;99.90;;;;;;5024826;28;20508;-46
2021/10/28 19:36:00;;;;;;;23.50;16.83;;;11.80;99.90;;;;;;5025069;28;20502;-46
2021/10/28 19:46:14;;;;;;;18.83;15.30;;;11.80;99.90;;;;;;5027580;28;20450;-45
2021/10/28 19:48:40;;;;;;;23.27;16.47;;;11.70;99.90;;;;;;5027947;28;20508;-45
2021/10/28 19:51:08;;;;;;;22.70;15.10;;;11.80;99.90;;;;;;5027886;28;21272;-45
2021/10/28 19:53:34;;;;;;;21.20;15.53;;;11.80;99.90;;;;;;5026423;28;20544;-43
2021/10/28 19:56:15;;;;;;;21.67;15.60;;;11.80;99.90;;;;;;5027530;28;21047;-44
2021/10/28 19:58:47;;;;;;;21.53;15.50;;;11.90;99.90;;;;;;5018551;28;20440;-43
2021/10/28 20:01:24;;;;;;;20.73;15.23;;;11.90;99.90;;;;;;5026453;28;20578;-45
2021/10/28 20:22:50;;;;;;;19.60;13.60;;;11.60;99.90;;;;;;5024159;28;20862;-44
2021/10/28 20:25:23;;;;;;;21.50;14.97;;;11.60;99.90;;;;;;5044343;28;20435;-44
2021/10/28 20:27:50;;;;;;;19.80;14.93;;;11.60;99.90;;;;;;5036758;28;20434;-44
2021/10/28 20:30:23;;;;;;;17.77;13.70;;;11.60;99.90;;;;;;5016573;28;20777;-47
2021/10/28 20:32:49;;;;;;;19.70;14.27;;;11.50;99.90;;;;;;5026012;28;20441;-45
2021/10/28 20:37:52;;;;;;;19.20;14.00;;;11.60;99.90;;;;;;5026595;28;20440;-46
2021/10/28 20:40:18;;;;;;;20.67;13.30;;;11.60;99.90;;;;;;5027482;28;20429;-45
2021/10/28 20:42:47;;;;;;;20.90;14.77;;;11.50;99.90;;;;;;5022323;28;20987;-47
2021/10/28 20:45:24;;;;;;;20.63;15.23;;;11.60;99.90;;;;;;5019967;28;20436;-46
2021/10/28 20:47:52;;;;;;;21.30;14.57;;;11.50;99.90;;;;;;5022762;28;20436;-45
2021/10/28 20:50:22;;;;;;;22.53;15.60;;;11.50;99.90;;;;;;5027751;28;20456;-45
2021/10/28 20:52:48;;;;;;;17.03;14.47;;;11.50;99.90;;;;;;5027057;28;20508;-45
2021/10/28 20:55:15;;;;;;;20.23;14.87;;;11.40;99.90;;;;;;5027833;28;20503;-45
2021/10/28 20:57:41;;;;;;;22.57;14.80;;;11.40;99.90;;;;;;5025182;28;20463;-45
2021/10/28 21:00:10;;;;;;;19.10;14.03;;;11.40;99.90;;;;;;5020503;28;20440;-45
2021/10/28 21:02:37;;;;;;;18.53;13.37;;;11.50;99.90;;;;;;5027027;28;20556;-45
2021/10/28 21:05:10;;;;;;;21.90;14.10;;;11.50;99.90;;;;;;5027463;28;20437;-46
2021/10/28 21:07:36;;;;;;;18.50;13.73;;;11.50;99.90;;;;;;5031983;28;20428;-45
2021/10/28 21:10:03;;;;;;;19.67;12.80;;;11.50;99.90;;;;;;5047377;28;20554;-45
2021/10/28 21:12:29;;;;;;;20.93;14.33;;;11.50;99.90;;;;;;5046244;28;20479;-45
2021/10/28 21:14:54;;;;;;;18.20;13.80;;;11.30;99.90;;;;;;5016704;28;20453;-46
2021/10/28 21:17:20;;;;;;;20.50;14.60;;;11.50;99.90;;;;;;5027169;28;20433;-45
2021/10/28 21:19:46;;;;;;;21.70;14.23;;;11.60;99.90;;;;;;5027543;28;20186;-49
2021/10/28 21:22:14;;;;;;;17.87;13.20;;;11.30;99.90;;;;;;5026675;28;20216;-45
2021/10/28 21:24:43;;;;;;;20.30;13.80;;;11.40;99.90;;;;;;5026409;28;20190;-47
2021/10/28 21:27:09;;;;;;;19.70;13.43;;;11.60;99.90;;;;;;5027384;28;20829;-45
2021/10/28 21:29:35;;;;;;;17.80;14.03;;;11.50;99.90;;;;;;5014357;28;20510;-46
2021/10/28 21:32:00;;;;;;;19.67;13.23;;;11.40;99.90;;;;;;5026989;28;20641;-45
2021/10/28 21:34:26;;;;;;;21.33;13.63;;;11.50;99.90;;;;;;5026549;28;20859;-45
2021/10/28 21:36:52;;;;;;;21.63;14.13;;;11.40;99.90;;;;;;5026647;28;20194;-45
2021/10/28 21:39:18;;;;;;;19.20;13.70;;;11.30;99.90;;;;;;5026551;28;20199;-47
2021/10/28 21:41:43;;;;;;;20.20;13.57;;;11.40;99.90;;;;;;5026803;28;20297;-45
2021/10/28 21:44:10;;;;;;;21.10;14.00;;;11.30;99.90;;;;;;5015891;28;20511;-45
2021/10/28 21:46:36;;;;;;;18.77;13.37;;;11.30;99.90;;;;;;5025963;28;20175;-45